sensor_id;sensor_type;location;lat;lon;timestamp;temperature;humidity
53422;DHT22;39319;52.944;5.928;2024-03-02T00:00:21;10.50;99.90
53422;DHT22;39319;52.944;5.928;2024-03-02T00:02:49;10.30;99.90
53422;DHT22;39319;52.944;5.928;2024-03-02T00:05:17;10.30;99.90
53422;DHT22;39319;52.944;5.928;2024-03-02T00:07:45;10.40;99.90
53422;DHT22;39319;52.944;5.928;2024-03-02T00:10:19;10.30;99.90
53422;DHT22;39319;52.944;5.928;2024-03-02T00:12:47;10.30;99.90
53422;DHT22;39319;52.944;5.928;2024-03-02T00:15:35;10.40;99.90
53422;DHT22;39319;52.944;5.928;2024-03-02T00:18:04;10.30;99.90
53422;DHT22;39319;52.944;5.928;2024-03-02T00:20:31;10.30;99.90
53422;DHT22;39319;52.944;5.928;2024-03-02T00:23:06;10.20;99.90
53422;DHT22;39319;52.944;5.928;2024-03-02T00:25:47;10.30;99.90
53422;DHT22;39319;52.944;5.928;2024-03-02T00:28:22;10.40;99.90
53422;DHT22;39319;52.944;5.928;2024-03-02T00:30:55;10.40;99.90
53422;DHT22;39319;52.944;5.928;2024-03-02T00:33:27;10.40;99.90
53422;DHT22;39319;52.944;5.928;2024-03-02T00:35:54;10.40;99.90
53422;DHT22;39319;52.944;5.928;2024-03-02T00:38:23;10.50;99.90
53422;DHT22;39319;52.944;5.928;2024-03-02T00:40:49;10.40;99.90
53422;DHT22;39319;52.944;5.928;2024-03-02T00:45:53;10.40;99.90
53422;DHT22;39319;52.944;5.928;2024-03-02T00:48:19;10.40;99.90
53422;DHT22;39319;52.944;5.928;2024-03-02T00:50:45;10.40;99.90
53422;DHT22;39319;52.944;5.928;2024-03-02T00:53:12;10.40;99.90
53422;DHT22;39319;52.944;5.928;2024-03-02T00:55:38;10.50;99.90
53422;DHT22;39319;52.944;5.928;2024-03-02T00:58:09;10.40;99.90
53422;DHT22;39319;52.944;5.928;2024-03-02T01:00:35;10.40;99.90
53422;DHT22;39319;52.944;5.928;2024-03-02T01:03:01;10.40;99.90
53422;DHT22;39319;52.944;5.928;2024-03-02T01:05:26;10.30;99.90
53422;DHT22;39319;52.944;5.928;2024-03-02T01:07:54;10.50;99.90
53422;DHT22;39319;52.944;5.928;2024-03-02T01:10:20;10.40;99.90
53422;DHT22;39319;52.944;5.928;2024-03-02T01:12:46;10.40;99.90
53422;DHT22;39319;52.944;5.928;2024-03-02T01:15:11;10.40;99.90
53422;DHT22;39319;52.944;5.928;2024-03-02T01:17:37;10.40;99.90
53422;DHT22;39319;52.944;5.928;2024-03-02T01:20:03;10.40;99.90
53422;DHT22;39319;52.944;5.928;2024-03-02T01:22:30;10.30;99.90
53422;DHT22;39319;52.944;5.928;2024-03-02T01:24:55;10.90;99.90
53422;DHT22;39319;52.944;5.928;2024-03-02T01:27:21;10.30;99.90
53422;DHT22;39319;52.944;5.928;2024-03-02T01:29:47;10.40;99.90
53422;DHT22;39319;52.944;5.928;2024-03-02T01:32:12;10.40;99.90
53422;DHT22;39319;52.944;5.928;2024-03-02T01:34:38;10.50;99.90
53422;DHT22;39319;52.944;5.928;2024-03-02T01:37:04;10.50;99.90
53422;DHT22;39319;52.944;5.928;2024-03-02T01:39:30;10.40;99.90
53422;DHT22;39319;52.944;5.928;2024-03-02T01:41:55;10.40;99.90
53422;DHT22;39319;52.944;5.928;2024-03-02T01:44:21;10.40;99.90
53422;DHT22;39319;52.944;5.928;2024-03-02T01:46:47;10.50;99.90
53422;DHT22;39319;52.944;5.928;2024-03-02T01:49:13;10.50;99.90
53422;DHT22;39319;52.944;5.928;2024-03-02T01:51:38;10.40;99.90
53422;DHT22;39319;52.944;5.928;2024-03-02T01:54:04;10.40;99.90
53422;DHT22;39319;52.944;5.928;2024-03-02T01:56:32;10.40;99.90
53422;DHT22;39319;52.944;5.928;2024-03-02T01:58:58;10.40;99.90
53422;DHT22;39319;52.944;5.928;2024-03-02T02:01:23;10.50;99.90
53422;DHT22;39319;52.944;5.928;2024-03-02T02:03:49;10.40;99.90
53422;DHT22;39319;52.944;5.928;2024-03-02T02:06:15;10.30;99.90
53422;DHT22;39319;52.944;5.928;2024-03-02T02:08:41;10.40;99.90
53422;DHT22;39319;52.944;5.928;2024-03-02T02:11:06;10.30;99.90
53422;DHT22;39319;52.944;5.928;2024-03-02T02:13:32;10.40;99.90
53422;DHT22;39319;52.944;5.928;2024-03-02T02:16:08;10.50;99.90
53422;DHT22;39319;52.944;5.928;2024-03-02T02:18:34;10.40;99.90
53422;DHT22;39319;52.944;5.928;2024-03-02T02:21:01;10.50;99.90
53422;DHT22;39319;52.944;5.928;2024-03-02T02:23:27;10.50;99.90
53422;DHT22;39319;52.944;5.928;2024-03-02T02:25:53;10.50;99.90
53422;DHT22;39319;52.944;5.928;2024-03-02T02:28:19;10.50;99.90
53422;DHT22;39319;52.944;5.928;2024-03-02T02:30:47;10.50;99.90
53422;DHT22;39319;52.944;5.928;2024-03-02T02:33:13;10.60;99.90
53422;DHT22;39319;52.944;5.928;2024-03-02T02:35:38;10.60;99.90
53422;DHT22;39319;52.944;5.928;2024-03-02T02:38:04;10.60;99.90
53422;DHT22;39319;52.944;5.928;2024-03-02T02:40:30;10.60;99.90
53422;DHT22;39319;52.944;5.928;2024-03-02T02:42:57;10.70;99.90
53422;DHT22;39319;52.944;5.928;2024-03-02T02:45:23;10.70;99.90
53422;DHT22;39319;52.944;5.928;2024-03-02T02:47:51;10.70;99.90
53422;DHT22;39319;52.944;5.928;2024-03-02T02:50:17;10.70;99.90
53422;DHT22;39319;52.944;5.928;2024-03-02T02:52:43;10.60;99.90
53422;DHT22;39319;52.944;5.928;2024-03-02T02:55:12;10.60;99.90
53422;DHT22;39319;52.944;5.928;2024-03-02T02:57:40;10.60;99.90
53422;DHT22;39319;52.944;5.928;2024-03-02T03:00:16;10.60;99.90
53422;DHT22;39319;52.944;5.928;2024-03-02T03:02:46;10.70;99.90
53422;DHT22;39319;52.944;5.928;2024-03-02T03:05:14;10.60;99.90
53422;DHT22;39319;52.944;5.928;2024-03-02T03:07:40;10.70;99.90
53422;DHT22;39319;52.944;5.928;2024-03-02T03:10:08;10.70;99.90
53422;DHT22;39319;52.944;5.928;2024-03-02T03:12:34;10.70;99.90
53422;DHT22;39319;52.944;5.928;2024-03-02T03:15:01;10.70;99.90
53422;DHT22;39319;52.944;5.928;2024-03-02T03:17:28;10.70;99.90
53422;DHT22;39319;52.944;5.928;2024-03-02T03:19:54;10.70;99.90
53422;DHT22;39319;52.944;5.928;2024-03-02T03:22:22;10.70;99.90
53422;DHT22;39319;52.944;5.928;2024-03-02T03:24:48;10.60;99.90
53422;DHT22;39319;52.944;5.928;2024-03-02T03:27:14;10.60;99.90
53422;DHT22;39319;52.944;5.928;2024-03-02T03:29:40;10.70;99.90
53422;DHT22;39319;52.944;5.928;2024-03-02T03:32:06;10.70;99.90
53422;DHT22;39319;52.944;5.928;2024-03-02T03:34:33;10.60;99.90
53422;DHT22;39319;52.944;5.928;2024-03-02T03:36:59;10.70;99.90
53422;DHT22;39319;52.944;5.928;2024-03-02T03:39:24;10.70;99.90
53422;DHT22;39319;52.944;5.928;2024-03-02T03:41:50;10.70;99.90
53422;DHT22;39319;52.944;5.928;2024-03-02T03:44:18;10.70;99.90
53422;DHT22;39319;52.944;5.928;2024-03-02T03:46:44;10.60;99.90
53422;DHT22;39319;52.944;5.928;2024-03-02T03:49:09;10.60;99.90
53422;DHT22;39319;52.944;5.928;2024-03-02T03:51:35;10.60;99.90
53422;DHT22;39319;52.944;5.928;2024-03-02T03:54:01;10.60;99.90
53422;DHT22;39319;52.944;5.928;2024-03-02T03:56:27;10.50;99.90
53422;DHT22;39319;52.944;5.928;2024-03-02T03:58:52;10.70;99.90
53422;DHT22;39319;52.944;5.928;2024-03-02T04:01:18;10.50;99.90
53422;DHT22;39319;52.944;5.928;2024-03-02T04:03:48;10.50;99.90
53422;DHT22;39319;52.944;5.928;2024-03-02T04:06:14;10.50;99.90
53422;DHT22;39319;52.944;5.928;2024-03-02T04:08:41;10.50;99.90
53422;DHT22;39319;52.944;5.928;2024-03-02T04:11:07;10.40;99.90
53422;DHT22;39319;52.944;5.928;2024-03-02T04:13:33;10.40;99.90
53422;DHT22;39319;52.944;5.928;2024-03-02T04:15:59;10.40;99.90
53422;DHT22;39319;52.944;5.928;2024-03-02T04:18:25;10.40;99.90
53422;DHT22;39319;52.944;5.928;2024-03-02T04:20:50;10.30;99.90
53422;DHT22;39319;52.944;5.928;2024-03-02T04:23:16;10.40;99.90
53422;DHT22;39319;52.944;5.928;2024-03-02T04:25:42;10.20;99.90
53422;DHT22;39319;52.944;5.928;2024-03-02T04:28:07;10.30;99.90
53422;DHT22;39319;52.944;5.928;2024-03-02T04:30:33;10.20;99.90
53422;DHT22;39319;52.944;5.928;2024-03-02T04:32:59;10.20;99.90
53422;DHT22;39319;52.944;5.928;2024-03-02T04:35:27;10.20;99.90
53422;DHT22;39319;52.944;5.928;2024-03-02T04:37:54;10.20;99.90
53422;DHT22;39319;52.944;5.928;2024-03-02T04:40:19;10.30;99.90
53422;DHT22;39319;52.944;5.928;2024-03-02T04:42:45;10.10;99.90
53422;DHT22;39319;52.944;5.928;2024-03-02T04:45:11;10.00;99.90
53422;DHT22;39319;52.944;5.928;2024-03-02T04:47:36;10.10;99.90
53422;DHT22;39319;52.944;5.928;2024-03-02T04:50:02;9.80;99.90
53422;DHT22;39319;52.944;5.928;2024-03-02T04:52:28;9.80;99.90
53422;DHT22;39319;52.944;5.928;2024-03-02T04:54:54;9.80;99.90
53422;DHT22;39319;52.944;5.928;2024-03-02T04:57:42;9.70;99.90
53422;DHT22;39319;52.944;5.928;2024-03-02T05:00:08;9.70;99.90
53422;DHT22;39319;52.944;5.928;2024-03-02T05:02:34;9.60;99.90
53422;DHT22;39319;52.944;5.928;2024-03-02T05:05:05;9.70;99.90
53422;DHT22;39319;52.944;5.928;2024-03-02T05:07:30;9.80;99.90
53422;DHT22;39319;52.944;5.928;2024-03-02T05:09:56;9.80;99.90
53422;DHT22;39319;52.944;5.928;2024-03-02T05:12:24;9.90;99.90
53422;DHT22;39319;52.944;5.928;2024-03-02T05:15:09;9.70;99.90
53422;DHT22;39319;52.944;5.928;2024-03-02T05:17:39;9.60;99.90
53422;DHT22;39319;52.944;5.928;2024-03-02T05:20:06;9.60;99.90
53422;DHT22;39319;52.944;5.928;2024-03-02T05:22:33;9.60;99.90
53422;DHT22;39319;52.944;5.928;2024-03-02T05:25:00;9.60;99.90
53422;DHT22;39319;52.944;5.928;2024-03-02T05:27:27;9.90;99.90
53422;DHT22;39319;52.944;5.928;2024-03-02T05:29:52;9.60;99.90
53422;DHT22;39319;52.944;5.928;2024-03-02T05:32:18;9.50;99.90
53422;DHT22;39319;52.944;5.928;2024-03-02T05:34:44;9.60;99.90
53422;DHT22;39319;52.944;5.928;2024-03-02T05:37:09;9.50;99.90
53422;DHT22;39319;52.944;5.928;2024-03-02T05:39:35;9.40;99.90
53422;DHT22;39319;52.944;5.928;2024-03-02T05:42:01;9.60;99.90
53422;DHT22;39319;52.944;5.928;2024-03-02T05:44:26;9.60;99.90
53422;DHT22;39319;52.944;5.928;2024-03-02T05:46:52;9.80;99.90
53422;DHT22;39319;52.944;5.928;2024-03-02T05:49:18;9.70;99.90
53422;DHT22;39319;52.944;5.928;2024-03-02T05:51:43;9.40;99.90
53422;DHT22;39319;52.944;5.928;2024-03-02T05:54:12;9.50;99.90
53422;DHT22;39319;52.944;5.928;2024-03-02T05:56:37;9.40;99.90
53422;DHT22;39319;52.944;5.928;2024-03-02T05:59:03;9.30;99.90
53422;DHT22;39319;52.944;5.928;2024-03-02T06:01:45;9.30;99.90
53422;DHT22;39319;52.944;5.928;2024-03-02T06:04:16;9.30;99.90
53422;DHT22;39319;52.944;5.928;2024-03-02T06:06:42;9.30;99.90
53422;DHT22;39319;52.944;5.928;2024-03-02T06:09:08;9.40;99.90
53422;DHT22;39319;52.944;5.928;2024-03-02T06:11:34;9.30;99.90
53422;DHT22;39319;52.944;5.928;2024-03-02T06:14:00;9.10;99.90
53422;DHT22;39319;52.944;5.928;2024-03-02T06:16:26;9.00;99.90
53422;DHT22;39319;52.944;5.928;2024-03-02T06:18:52;9.10;99.90
53422;DHT22;39319;52.944;5.928;2024-03-02T06:21:19;9.00;99.90
53422;DHT22;39319;52.944;5.928;2024-03-02T06:23:45;8.90;99.90
53422;DHT22;39319;52.944;5.928;2024-03-02T06:26:11;9.10;99.90
53422;DHT22;39319;52.944;5.928;2024-03-02T06:28:38;9.00;99.90
53422;DHT22;39319;52.944;5.928;2024-03-02T06:31:04;9.00;99.90
53422;DHT22;39319;52.944;5.928;2024-03-02T06:33:29;8.50;99.90
53422;DHT22;39319;52.944;5.928;2024-03-02T06:35:55;8.80;99.90
53422;DHT22;39319;52.944;5.928;2024-03-02T06:38:21;8.80;99.90
53422;DHT22;39319;52.944;5.928;2024-03-02T06:40:47;8.70;99.90
53422;DHT22;39319;52.944;5.928;2024-03-02T06:43:12;8.70;99.90
53422;DHT22;39319;52.944;5.928;2024-03-02T06:45:38;8.80;99.90
53422;DHT22;39319;52.944;5.928;2024-03-02T06:48:04;8.70;99.90
53422;DHT22;39319;52.944;5.928;2024-03-02T06:50:33;8.80;99.90
53422;DHT22;39319;52.944;5.928;2024-03-02T06:52:58;8.70;99.90
53422;DHT22;39319;52.944;5.928;2024-03-02T06:55:24;8.70;99.90
53422;DHT22;39319;52.944;5.928;2024-03-02T06:57:50;8.80;99.90
53422;DHT22;39319;52.944;5.928;2024-03-02T07:00:17;8.60;99.90
53422;DHT22;39319;52.944;5.928;2024-03-02T07:02:44;8.60;99.90
53422;DHT22;39319;52.944;5.928;2024-03-02T07:05:10;8.70;99.90
53422;DHT22;39319;52.944;5.928;2024-03-02T07:07:38;8.70;99.90
53422;DHT22;39319;52.944;5.928;2024-03-02T07:10:04;8.50;99.90
53422;DHT22;39319;52.944;5.928;2024-03-02T07:12:30;8.60;99.90
53422;DHT22;39319;52.944;5.928;2024-03-02T07:14:57;8.70;99.90
53422;DHT22;39319;52.944;5.928;2024-03-02T07:17:29;8.70;99.90
53422;DHT22;39319;52.944;5.928;2024-03-02T07:19:55;8.70;99.90
53422;DHT22;39319;52.944;5.928;2024-03-02T07:22:21;8.70;99.90
53422;DHT22;39319;52.944;5.928;2024-03-02T07:24:47;8.90;99.90
53422;DHT22;39319;52.944;5.928;2024-03-02T07:27:13;8.70;99.90
53422;DHT22;39319;52.944;5.928;2024-03-02T07:29:39;8.70;99.90
53422;DHT22;39319;52.944;5.928;2024-03-02T07:32:06;8.60;99.90
53422;DHT22;39319;52.944;5.928;2024-03-02T07:34:32;8.80;99.90
53422;DHT22;39319;52.944;5.928;2024-03-02T07:36:58;8.80;99.90
53422;DHT22;39319;52.944;5.928;2024-03-02T07:39:24;8.80;99.90
53422;DHT22;39319;52.944;5.928;2024-03-02T07:41:50;8.80;99.90
53422;DHT22;39319;52.944;5.928;2024-03-02T07:44:16;8.70;99.90
53422;DHT22;39319;52.944;5.928;2024-03-02T07:46:42;8.90;99.90
53422;DHT22;39319;52.944;5.928;2024-03-02T07:49:09;8.90;99.90
53422;DHT22;39319;52.944;5.928;2024-03-02T07:51:35;8.70;99.90
53422;DHT22;39319;52.944;5.928;2024-03-02T07:54:02;8.80;99.90
53422;DHT22;39319;52.944;5.928;2024-03-02T07:56:27;8.90;99.90
53422;DHT22;39319;52.944;5.928;2024-03-02T07:58:54;8.90;99.90
53422;DHT22;39319;52.944;5.928;2024-03-02T08:01:20;9.00;99.90
53422;DHT22;39319;52.944;5.928;2024-03-02T08:03:47;9.20;99.90
53422;DHT22;39319;52.944;5.928;2024-03-02T08:06:17;9.20;99.90
53422;DHT22;39319;52.944;5.928;2024-03-02T08:08:48;9.30;99.90
53422;DHT22;39319;52.944;5.928;2024-03-02T08:11:16;9.30;99.90
53422;DHT22;39319;52.944;5.928;2024-03-02T08:13:43;9.30;99.90
53422;DHT22;39319;52.944;5.928;2024-03-02T08:16:08;9.30;99.90
53422;DHT22;39319;52.944;5.928;2024-03-02T08:18:35;9.40;99.90
53422;DHT22;39319;52.944;5.928;2024-03-02T08:21:01;9.40;99.90
53422;DHT22;39319;52.944;5.928;2024-03-02T08:23:27;9.40;99.90
53422;DHT22;39319;52.944;5.928;2024-03-02T08:25:53;9.60;99.90
53422;DHT22;39319;52.944;5.928;2024-03-02T08:28:18;9.50;99.90
53422;DHT22;39319;52.944;5.928;2024-03-02T08:30:45;9.50;99.90
53422;DHT22;39319;52.944;5.928;2024-03-02T08:33:11;9.60;99.90
53422;DHT22;39319;52.944;5.928;2024-03-02T08:35:36;9.60;99.90
53422;DHT22;39319;52.944;5.928;2024-03-02T08:38:03;9.70;99.90
53422;DHT22;39319;52.944;5.928;2024-03-02T08:40:30;9.80;99.90
53422;DHT22;39319;52.944;5.928;2024-03-02T08:42:56;9.80;99.90
53422;DHT22;39319;52.944;5.928;2024-03-02T08:45:21;9.80;99.90
53422;DHT22;39319;52.944;5.928;2024-03-02T08:47:49;9.90;99.90
53422;DHT22;39319;52.944;5.928;2024-03-02T08:50:15;10.00;99.90
53422;DHT22;39319;52.944;5.928;2024-03-02T08:52:41;9.80;99.90
53422;DHT22;39319;52.944;5.928;2024-03-02T08:55:08;10.00;99.90
53422;DHT22;39319;52.944;5.928;2024-03-02T08:57:33;10.00;99.90
53422;DHT22;39319;52.944;5.928;2024-03-02T09:00:00;10.00;99.90
53422;DHT22;39319;52.944;5.928;2024-03-02T09:02:26;10.10;99.90
53422;DHT22;39319;52.944;5.928;2024-03-02T09:04:52;10.20;99.90
53422;DHT22;39319;52.944;5.928;2024-03-02T09:07:18;10.40;99.90
53422;DHT22;39319;52.944;5.928;2024-03-02T09:09:44;10.40;99.90
53422;DHT22;39319;52.944;5.928;2024-03-02T09:12:09;10.40;99.90
53422;DHT22;39319;52.944;5.928;2024-03-02T09:14:36;10.40;99.90
53422;DHT22;39319;52.944;5.928;2024-03-02T09:17:03;10.60;99.90
53422;DHT22;39319;52.944;5.928;2024-03-02T09:19:29;10.70;99.90
53422;DHT22;39319;52.944;5.928;2024-03-02T09:21:55;10.70;99.90
53422;DHT22;39319;52.944;5.928;2024-03-02T09:24:22;10.90;99.90
53422;DHT22;39319;52.944;5.928;2024-03-02T09:26:47;10.80;99.90
53422;DHT22;39319;52.944;5.928;2024-03-02T09:29:13;10.90;99.90
53422;DHT22;39319;52.944;5.928;2024-03-02T09:31:40;11.00;99.90
53422;DHT22;39319;52.944;5.928;2024-03-02T09:34:07;11.00;99.90
53422;DHT22;39319;52.944;5.928;2024-03-02T09:36:33;11.20;99.90
53422;DHT22;39319;52.944;5.928;2024-03-02T09:38:58;11.20;99.90
53422;DHT22;39319;52.944;5.928;2024-03-02T09:41:24;11.20;99.90
53422;DHT22;39319;52.944;5.928;2024-03-02T09:43:50;11.10;99.90
53422;DHT22;39319;52.944;5.928;2024-03-02T09:46:18;11.30;99.90
53422;DHT22;39319;52.944;5.928;2024-03-02T09:48:44;11.40;99.90
53422;DHT22;39319;52.944;5.928;2024-03-02T09:51:11;11.40;99.90
53422;DHT22;39319;52.944;5.928;2024-03-02T09:53:37;11.40;99.90
53422;DHT22;39319;52.944;5.928;2024-03-02T09:56:03;11.40;99.90
53422;DHT22;39319;52.944;5.928;2024-03-02T09:58:30;11.40;99.90
53422;DHT22;39319;52.944;5.928;2024-03-02T10:00:56;11.50;99.90
53422;DHT22;39319;52.944;5.928;2024-03-02T10:03:26;11.60;99.90
53422;DHT22;39319;52.944;5.928;2024-03-02T10:05:54;11.70;99.90
53422;DHT22;39319;52.944;5.928;2024-03-02T10:08:20;11.80;99.90
53422;DHT22;39319;52.944;5.928;2024-03-02T10:10:45;12.00;99.90
53422;DHT22;39319;52.944;5.928;2024-03-02T10:13:13;12.20;99.90
53422;DHT22;39319;52.944;5.928;2024-03-02T10:15:40;12.10;99.90
53422;DHT22;39319;52.944;5.928;2024-03-02T10:18:12;12.40;99.90
53422;DHT22;39319;52.944;5.928;2024-03-02T10:20:39;12.40;99.90
53422;DHT22;39319;52.944;5.928;2024-03-02T10:23:15;12.60;99.90
53422;DHT22;39319;52.944;5.928;2024-03-02T10:25:42;12.60;99.90
53422;DHT22;39319;52.944;5.928;2024-03-02T10:28:09;12.60;99.90
53422;DHT22;39319;52.944;5.928;2024-03-02T10:30:35;12.80;99.90
53422;DHT22;39319;52.944;5.928;2024-03-02T10:33:05;13.00;99.90
53422;DHT22;39319;52.944;5.928;2024-03-02T10:35:32;13.00;99.90
53422;DHT22;39319;52.944;5.928;2024-03-02T10:38:03;13.10;99.90
53422;DHT22;39319;52.944;5.928;2024-03-02T10:40:30;13.20;99.90
53422;DHT22;39319;52.944;5.928;2024-03-02T10:42:59;13.60;99.90
53422;DHT22;39319;52.944;5.928;2024-03-02T10:45:25;13.70;99.90
53422;DHT22;39319;52.944;5.928;2024-03-02T10:47:50;14.00;99.90
53422;DHT22;39319;52.944;5.928;2024-03-02T10:50:18;14.20;99.90
53422;DHT22;39319;52.944;5.928;2024-03-02T10:52:45;14.50;99.90
53422;DHT22;39319;52.944;5.928;2024-03-02T10:55:11;14.70;99.90
53422;DHT22;39319;52.944;5.928;2024-03-02T10:57:53;14.90;99.90
53422;DHT22;39319;52.944;5.928;2024-03-02T11:02:56;15.00;89.10
53422;DHT22;39319;52.944;5.928;2024-03-02T11:05:36;15.50;89.60
53422;DHT22;39319;52.944;5.928;2024-03-02T11:08:06;15.70;88.70
53422;DHT22;39319;52.944;5.928;2024-03-02T11:10:35;15.90;88.30
53422;DHT22;39319;52.944;5.928;2024-03-02T11:13:05;15.80;89.40
53422;DHT22;39319;52.944;5.928;2024-03-02T11:15:35;16.20;89.30
53422;DHT22;39319;52.944;5.928;2024-03-02T11:18:04;16.30;88.40
53422;DHT22;39319;52.944;5.928;2024-03-02T11:20:31;16.40;86.60
53422;DHT22;39319;52.944;5.928;2024-03-02T11:22:57;16.50;87.20
53422;DHT22;39319;52.944;5.928;2024-03-02T11:25:24;16.50;86.90
53422;DHT22;39319;52.944;5.928;2024-03-02T11:32:58;17.30;84.90
53422;DHT22;39319;52.944;5.928;2024-03-02T11:35:27;17.60;83.00
53422;DHT22;39319;52.944;5.928;2024-03-02T11:37:56;17.70;82.60
53422;DHT22;39319;52.944;5.928;2024-03-02T11:40:28;18.10;83.20
53422;DHT22;39319;52.944;5.928;2024-03-02T11:42:54;17.90;80.90
53422;DHT22;39319;52.944;5.928;2024-03-02T11:45:27;17.90;81.80
53422;DHT22;39319;52.944;5.928;2024-03-02T11:48:04;18.30;82.10
53422;DHT22;39319;52.944;5.928;2024-03-02T11:50:34;18.60;80.90
53422;DHT22;39319;52.944;5.928;2024-03-02T11:53:07;18.50;80.10
53422;DHT22;39319;52.944;5.928;2024-03-02T11:55:36;18.70;80.30
53422;DHT22;39319;52.944;5.928;2024-03-02T11:58:05;18.80;79.70
53422;DHT22;39319;52.944;5.928;2024-03-02T12:00:30;18.90;77.60
53422;DHT22;39319;52.944;5.928;2024-03-02T12:03:01;18.90;79.50
53422;DHT22;39319;52.944;5.928;2024-03-02T12:05:28;19.20;79.00
53422;DHT22;39319;52.944;5.928;2024-03-02T12:08:04;19.30;77.90
53422;DHT22;39319;52.944;5.928;2024-03-02T12:10:31;19.20;76.30
53422;DHT22;39319;52.944;5.928;2024-03-02T12:12:57;19.50;76.40
53422;DHT22;39319;52.944;5.928;2024-03-02T12:15:31;19.80;75.10
53422;DHT22;39319;52.944;5.928;2024-03-02T12:17:58;19.80;74.50
53422;DHT22;39319;52.944;5.928;2024-03-02T12:20:26;20.10;76.40
53422;DHT22;39319;52.944;5.928;2024-03-02T12:22:57;19.90;75.10
53422;DHT22;39319;52.944;5.928;2024-03-02T12:25:24;20.10;74.70
53422;DHT22;39319;52.944;5.928;2024-03-02T12:27:51;20.00;74.50
53422;DHT22;39319;52.944;5.928;2024-03-02T12:30:18;20.20;76.30
53422;DHT22;39319;52.944;5.928;2024-03-02T12:32:44;20.40;74.90
53422;DHT22;39319;52.944;5.928;2024-03-02T12:35:11;20.10;73.20
53422;DHT22;39319;52.944;5.928;2024-03-02T12:37:44;20.10;72.90
53422;DHT22;39319;52.944;5.928;2024-03-02T12:40:11;20.00;72.60
53422;DHT22;39319;52.944;5.928;2024-03-02T12:42:38;20.00;73.60
53422;DHT22;39319;52.944;5.928;2024-03-02T12:45:04;20.10;72.90
53422;DHT22;39319;52.944;5.928;2024-03-02T12:47:30;20.40;72.40
53422;DHT22;39319;52.944;5.928;2024-03-02T12:49:56;20.40;71.30
53422;DHT22;39319;52.944;5.928;2024-03-02T12:52:22;20.60;72.60
53422;DHT22;39319;52.944;5.928;2024-03-02T12:54:49;20.50;71.00
53422;DHT22;39319;52.944;5.928;2024-03-02T12:57:18;20.50;72.20
53422;DHT22;39319;52.944;5.928;2024-03-02T12:59:47;20.50;72.30
53422;DHT22;39319;52.944;5.928;2024-03-02T13:02:19;20.10;72.70
53422;DHT22;39319;52.944;5.928;2024-03-02T13:04:52;20.10;72.80
53422;DHT22;39319;52.944;5.928;2024-03-02T13:07:25;20.20;73.60
53422;DHT22;39319;52.944;5.928;2024-03-02T13:09:52;20.20;70.90
53422;DHT22;39319;52.944;5.928;2024-03-02T13:12:19;20.00;72.30
53422;DHT22;39319;52.944;5.928;2024-03-02T13:14:48;19.80;73.20
53422;DHT22;39319;52.944;5.928;2024-03-02T13:17:17;20.10;73.60
53422;DHT22;39319;52.944;5.928;2024-03-02T13:19:59;19.80;72.50
53422;DHT22;39319;52.944;5.928;2024-03-02T13:22:26;19.90;73.60
53422;DHT22;39319;52.944;5.928;2024-03-02T13:24:52;19.80;73.10
53422;DHT22;39319;52.944;5.928;2024-03-02T13:27:20;20.10;74.60
53422;DHT22;39319;52.944;5.928;2024-03-02T13:29:46;20.30;73.10
53422;DHT22;39319;52.944;5.928;2024-03-02T13:32:15;20.40;71.40
53422;DHT22;39319;52.944;5.928;2024-03-02T13:34:42;20.00;72.00
53422;DHT22;39319;52.944;5.928;2024-03-02T13:37:08;20.00;72.70
53422;DHT22;39319;52.944;5.928;2024-03-02T13:39:34;20.30;71.70
53422;DHT22;39319;52.944;5.928;2024-03-02T13:42:07;20.40;71.90
53422;DHT22;39319;52.944;5.928;2024-03-02T13:44:34;20.20;72.20
53422;DHT22;39319;52.944;5.928;2024-03-02T13:47:03;20.10;70.50
53422;DHT22;39319;52.944;5.928;2024-03-02T13:49:29;20.30;71.20
53422;DHT22;39319;52.944;5.928;2024-03-02T13:52:09;20.50;71.60
53422;DHT22;39319;52.944;5.928;2024-03-02T13:54:45;20.50;72.70
53422;DHT22;39319;52.944;5.928;2024-03-02T13:57:11;20.40;71.70
53422;DHT22;39319;52.944;5.928;2024-03-02T13:59:38;20.30;72.20
53422;DHT22;39319;52.944;5.928;2024-03-02T14:02:07;20.50;71.40
53422;DHT22;39319;52.944;5.928;2024-03-02T14:04:34;20.50;71.10
53422;DHT22;39319;52.944;5.928;2024-03-02T14:07:01;20.10;72.00
53422;DHT22;39319;52.944;5.928;2024-03-02T14:09:27;20.50;71.60
53422;DHT22;39319;52.944;5.928;2024-03-02T14:11:53;20.40;71.40
53422;DHT22;39319;52.944;5.928;2024-03-02T14:14:20;20.30;71.00
53422;DHT22;39319;52.944;5.928;2024-03-02T14:16:48;20.20;71.30
53422;DHT22;39319;52.944;5.928;2024-03-02T14:19:13;20.40;71.40
53422;DHT22;39319;52.944;5.928;2024-03-02T14:21:40;20.40;72.20
53422;DHT22;39319;52.944;5.928;2024-03-02T14:24:05;20.30;69.60
53422;DHT22;39319;52.944;5.928;2024-03-02T14:26:35;20.60;70.00
53422;DHT22;39319;52.944;5.928;2024-03-02T14:29:04;20.30;70.80
53422;DHT22;39319;52.944;5.928;2024-03-02T14:31:31;20.00;70.70
53422;DHT22;39319;52.944;5.928;2024-03-02T14:33:57;19.90;69.80
53422;DHT22;39319;52.944;5.928;2024-03-02T14:36:22;19.60;72.30
53422;DHT22;39319;52.944;5.928;2024-03-02T14:38:49;19.60;70.80
53422;DHT22;39319;52.944;5.928;2024-03-02T14:41:15;19.40;71.10
53422;DHT22;39319;52.944;5.928;2024-03-02T14:43:40;19.30;72.70
53422;DHT22;39319;52.944;5.928;2024-03-02T14:46:06;19.10;72.70
53422;DHT22;39319;52.944;5.928;2024-03-02T14:48:38;19.30;71.40
53422;DHT22;39319;52.944;5.928;2024-03-02T14:51:06;19.00;73.10
53422;DHT22;39319;52.944;5.928;2024-03-02T14:53:32;18.90;73.30
53422;DHT22;39319;52.944;5.928;2024-03-02T14:55:58;19.00;72.60
53422;DHT22;39319;52.944;5.928;2024-03-02T14:58:24;18.80;71.70
53422;DHT22;39319;52.944;5.928;2024-03-02T15:00:52;19.00;72.50
53422;DHT22;39319;52.944;5.928;2024-03-02T15:03:18;18.80;71.40
53422;DHT22;39319;52.944;5.928;2024-03-02T15:05:44;18.70;71.50
53422;DHT22;39319;52.944;5.928;2024-03-02T15:08:11;18.50;71.50
53422;DHT22;39319;52.944;5.928;2024-03-02T15:10:36;18.40;72.20
53422;DHT22;39319;52.944;5.928;2024-03-02T15:13:02;18.20;73.30
53422;DHT22;39319;52.944;5.928;2024-03-02T15:15:28;18.10;72.10
53422;DHT22;39319;52.944;5.928;2024-03-02T15:17:54;18.00;72.00
53422;DHT22;39319;52.944;5.928;2024-03-02T15:20:20;17.80;73.60
53422;DHT22;39319;52.944;5.928;2024-03-02T15:22:47;17.80;74.60
53422;DHT22;39319;52.944;5.928;2024-03-02T15:25:13;17.80;75.40
53422;DHT22;39319;52.944;5.928;2024-03-02T15:27:38;17.60;75.80
53422;DHT22;39319;52.944;5.928;2024-03-02T15:30:07;17.60;74.20
53422;DHT22;39319;52.944;5.928;2024-03-02T15:32:33;17.70;74.70
53422;DHT22;39319;52.944;5.928;2024-03-02T15:35:00;17.60;75.30
53422;DHT22;39319;52.944;5.928;2024-03-02T15:37:25;17.60;75.10
53422;DHT22;39319;52.944;5.928;2024-03-02T15:39:51;17.60;75.90
53422;DHT22;39319;52.944;5.928;2024-03-02T15:42:19;17.60;76.90
53422;DHT22;39319;52.944;5.928;2024-03-02T15:44:48;17.70;76.60